Time,TemperatureF,DewpointF,PressureIn,WindDirection,WindDirectionDegrees,WindSpeedMPH,WindSpeedGustMPH,Humidity,HourlyPrecipIn,Conditions,Clouds,dailyrainin,SoftwareType,DateUTC
2013-03-31 00:00:00,49.0,47.9,30.02,ENE,74,0.0,0.0,96,0.05,CLR,,0.23,WeatherDisplay:10.37,2013-03-31 04:00:00,
2013-03-31 00:05:00,49.0,47.9,30.01,ENE,74,0.0,0.0,96,0.05,RA,,0.01,WeatherDisplay:10.37,2013-03-31 04:05:00,
2013-03-31 00:10:00,48.9,47.8,30.01,ENE,74,0.0,0.0,96,0.06,RA,,0.02,WeatherDisplay:10.37,2013-03-31 04:10:00,
2013-03-31 00:15:00,48.8,47.7,30.00,ENE,74,2.2,2.2,96,0.05,RA,,0.02,WeatherDisplay:10.37,2013-03-31 04:15:00,
2013-03-31 00:20:00,48.7,47.6,30.00,ENE,73,3.5,3.5,96,0.05,RA,,0.03,WeatherDisplay:10.37,2013-03-31 04:20:00,
2013-03-31 00:25:00,48.7,47.6,30.00,NE,46,5.8,5.8,96,0.06,RA,,0.04,WeatherDisplay:10.37,2013-03-31 04:25:00,
2013-03-31 00:30:00,48.5,47.4,30.00,ENE,62,4.6,4.6,96,0.06,RA,,0.05,WeatherDisplay:10.37,2013-03-31 04:30:00,
2013-03-31 00:35:00,48.4,47.3,30.00,ESE,114,5.8,5.8,96,0.07,RA,,0.06,WeatherDisplay:10.37,2013-03-31 04:35:00,
2013-03-31 00:40:00,48.5,47.4,29.99,East,101,0.0,0.0,96,0.08,RA,,0.07,WeatherDisplay:10.37,2013-03-31 04:40:00,
2013-03-31 00:45:00,48.5,48.5,29.99,East,101,0.0,0.0,100,0.08,RA,,0.07,WeatherDisplay:10.37,2013-03-31 04:45:00,
2013-03-31 00:50:00,48.4,47.3,29.98,ENE,63,0.0,0.0,96,0.08,RA,,0.08,WeatherDisplay:10.37,2013-03-31 04:50:00,
2013-03-31 00:55:00,48.3,47.2,29.98,NNE,28,1.2,1.2,96,0.08,RA,,0.08,WeatherDisplay:10.37,2013-03-31 04:55:00,
2013-03-31 01:00:00,48.2,47.1,29.98,NNE,28,0.0,0.0,96,0.09,RA,,0.09,WeatherDisplay:10.37,2013-03-31 05:00:00,
2013-03-31 01:05:00,48.2,48.2,29.98,NE,52,4.6,4.6,100,0.09,RA,,0.10,WeatherDisplay:10.37,2013-03-31 05:05:00,
2013-03-31 01:10:00,48.2,48.2,29.97,NE,40,0.0,0.0,100,0.08,RA,,0.10,WeatherDisplay:10.37,2013-03-31 05:10:00,
2013-03-31 01:15:00,48.2,48.2,29.97,NE,39,4.6,4.6,100,0.09,RA,,0.11,WeatherDisplay:10.37,2013-03-31 05:15:00,
2013-03-31 01:20:00,48.2,48.2,29.97,NE,37,1.2,0.0,100,0.09,RA,,0.12,WeatherDisplay:10.37,2013-03-31 05:20:00,
2013-03-31 01:25:00,48.2,48.2,29.96,NE,56,3.5,3.5,100,0.09,RA,,0.13,WeatherDisplay:10.37,2013-03-31 05:25:00,
2013-03-31 01:30:00,48.2,48.2,29.96,NE,54,1.2,0.0,100,0.09,RA,,0.14,WeatherDisplay:10.37,2013-03-31 05:30:00,
2013-03-31 01:35:00,48.1,48.1,29.96,NE,54,0.0,0.0,100,0.08,RA,,0.14,WeatherDisplay:10.37,2013-03-31 05:35:00,
2013-03-31 01:40:00,48.1,48.1,29.95,East,86,4.6,4.6,100,0.08,RA,,0.15,WeatherDisplay:10.37,2013-03-31 05:40:00,
2013-03-31 01:45:00,48.2,48.2,29.96,NE,41,0.0,0.0,100,0.09,RA,,0.16,WeatherDisplay:10.37,2013-03-31 05:45:00,
2013-03-31 01:50:00,48.2,48.2,29.95,East,87,4.6,4.6,100,0.08,RA,,0.16,WeatherDisplay:10.37,2013-03-31 05:50:00,
2013-03-31 01:55:00,48.2,48.2,29.95,SE,140,1.2,1.2,100,0.09,RA,,0.17,WeatherDisplay:10.37,2013-03-31 05:55:00,
2013-03-31 02:00:00,48.2,48.2,29.95,ESE,109,1.1,1.1,100,0.09,RA,,0.18,WeatherDisplay:10.37,2013-03-31 06:00:00,
2013-03-31 02:05:00,48.2,48.2,29.95,ESE,112,0.0,0.0,100,0.08,RA,,0.18,WeatherDisplay:10.37,2013-03-31 06:05:00,
2013-03-31 02:10:00,48.5,48.5,29.94,South,186,2.3,0.0,100,0.10,RA,,0.20,WeatherDisplay:10.37,2013-03-31 06:10:00,
2013-03-31 02:15:00,48.6,48.6,29.94,South,186,1.2,0.0,100,0.09,RA,,0.20,WeatherDisplay:10.37,2013-03-31 06:15:00,
2013-03-31 02:20:00,48.6,48.6,29.94,South,186,0.0,0.0,100,0.09,RA,,0.22,WeatherDisplay:10.37,2013-03-31 06:20:00,
2013-03-31 02:25:00,48.6,48.6,29.94,SSW,208,1.2,0.0,100,0.09,RA,,0.22,WeatherDisplay:10.37,2013-03-31 06:25:00,
2013-03-31 02:30:00,48.9,48.9,29.93,SSE,148,2.3,2.3,100,0.09,RA,,0.23,WeatherDisplay:10.37,2013-03-31 06:30:00,
2013-03-31 02:35:00,49.1,49.1,29.93,SE,132,2.2,2.2,100,0.10,RA,,0.24,WeatherDisplay:10.37,2013-03-31 06:35:00,
2013-03-31 02:40:00,49.3,49.3,29.93,SE,141,3.5,3.5,100,0.10,RA,,0.25,WeatherDisplay:10.37,2013-03-31 06:40:00,
2013-03-31 02:45:00,49.5,49.5,29.93,SW,227,4.6,4.6,100,0.10,RA,,0.26,WeatherDisplay:10.37,2013-03-31 06:45:00,
2013-03-31 02:50:00,49.6,49.6,29.93,SSW,193,3.5,3.5,100,0.11,RA,,0.27,WeatherDisplay:10.37,2013-03-31 06:50:00,
2013-03-31 02:55:00,49.7,49.7,29.92,SW,218,10.4,10.4,100,0.11,RA,,0.28,WeatherDisplay:10.37,2013-03-31 06:55:00,
2013-03-31 03:00:00,49.8,49.8,29.92,SW,224,8.0,8.0,100,0.11,RA,,0.29,WeatherDisplay:10.37,2013-03-31 07:00:00,
2013-03-31 03:05:00,49.9,49.9,29.92,SW,227,8.1,8.1,100,0.12,RA,,0.30,WeatherDisplay:10.37,2013-03-31 07:05:00,
2013-03-31 03:10:00,49.9,49.9,29.92,SW,217,8.0,8.0,100,0.11,RA,,0.31,WeatherDisplay:10.37,2013-03-31 07:10:00,
2013-03-31 03:15:00,50.0,50.0,29.92,SSW,210,3.5,0.0,100,0.12,RA,,0.32,WeatherDisplay:10.37,2013-03-31 07:15:00,
2013-03-31 03:20:00,50.0,50.0,29.92,South,183,7.6,7.6,100,0.12,RA,,0.34,WeatherDisplay:10.37,2013-03-31 07:20:00,
2013-03-31 03:25:00,50.1,50.1,29.92,WSW,248,6.9,6.9,100,0.12,RA,,0.34,WeatherDisplay:10.37,2013-03-31 07:25:00,
2013-03-31 03:30:00,50.1,50.1,29.91,WSW,243,11.5,11.5,100,0.12,RA,,0.36,WeatherDisplay:10.37,2013-03-31 07:30:00,
2013-03-31 03:35:00,50.2,50.2,29.91,SW,221,14.6,14.6,100,0.12,RA,,0.36,WeatherDisplay:10.37,2013-03-31 07:35:00,
2013-03-31 03:40:00,50.2,50.2,29.91,SW,229,13.3,13.3,100,0.12,RA,,0.38,WeatherDisplay:10.37,2013-03-31 07:40:00,
2013-03-31 03:45:00,50.2,50.2,29.91,SSW,213,16.0,16.0,100,0.12,RA,,0.38,WeatherDisplay:10.37,2013-03-31 07:45:00,
2013-03-31 03:50:00,50.3,50.3,29.91,South,186,10.4,10.4,100,0.12,RA,,0.40,WeatherDisplay:10.37,2013-03-31 07:50:00,
2013-03-31 03:55:00,50.3,50.3,29.90,WSW,241,14.6,14.6,100,0.12,RA,,0.40,WeatherDisplay:10.37,2013-03-31 07:55:00,
2013-03-31 04:00:00,50.3,50.3,29.90,West,260,13.8,13.8,100,0.12,RA,,0.42,WeatherDisplay:10.37,2013-03-31 08:00:00,
2013-03-31 04:05:00,50.4,50.4,29.90,SSW,204,8.1,8.1,100,0.12,RA,,0.42,WeatherDisplay:10.37,2013-03-31 08:05:00,
2013-03-31 04:10:00,50.4,50.4,29.90,SW,234,17.3,17.3,100,0.12,RA,,0.44,WeatherDisplay:10.37,2013-03-31 08:10:00,
2013-03-31 04:15:00,50.5,50.5,29.90,SW,235,10.6,10.6,100,0.12,RA,,0.44,WeatherDisplay:10.37,2013-03-31 08:15:00,
2013-03-31 04:20:00,50.5,50.5,29.89,SW,214,15.0,15.0,100,0.12,RA,,0.46,WeatherDisplay:10.37,2013-03-31 08:20:00,
2013-03-31 04:25:00,50.6,50.6,29.89,SW,214,13.8,16.5,100,0.12,RA,,0.47,WeatherDisplay:10.37,2013-03-31 08:25:00,
2013-03-31 04:30:00,50.6,50.6,29.89,WSW,240,15.0,15.2,100,0.13,RA,,0.48,WeatherDisplay:10.37,2013-03-31 08:30:00,
2013-03-31 04:35:00,50.7,50.7,29.89,West,277,11.5,11.5,100,0.13,RA,,0.49,WeatherDisplay:10.37,2013-03-31 08:35:00,
2013-03-31 04:41:00,50.7,50.7,29.89,SW,224,8.1,8.1,100,0.13,RA,,0.50,WeatherDisplay:10.37,2013-03-31 08:41:00,
2013-03-31 04:46:00,50.7,50.7,29.88,West,271,15.0,15.0,100,0.13,RA,,0.51,WeatherDisplay:10.37,2013-03-31 08:46:00,
2013-03-31 04:51:00,50.8,50.8,29.88,SW,218,13.8,13.8,100,0.13,RA,,0.52,WeatherDisplay:10.37,2013-03-31 08:51:00,
2013-03-31 04:56:00,50.8,50.8,29.88,South,181,19.6,19.6,100,0.13,RA,,0.54,WeatherDisplay:10.37,2013-03-31 08:56:00,
2013-03-31 05:01:00,50.9,50.9,29.89,SW,231,26.5,26.5,100,0.13,RA,,0.55,WeatherDisplay:10.37,2013-03-31 09:01:00,
2013-03-31 05:06:00,50.9,50.9,29.88,WSW,256,26.5,26.5,100,0.14,RA,,0.56,WeatherDisplay:10.37,2013-03-31 09:06:00,
2013-03-31 05:11:00,50.9,50.9,29.88,SW,230,19.6,25.7,100,0.14,RA,,0.57,WeatherDisplay:10.37,2013-03-31 09:11:00,
2013-03-31 05:16:00,50.9,50.9,29.88,WSW,250,23.0,23.0,100,0.14,RA,,0.58,WeatherDisplay:10.37,2013-03-31 09:16:00,
2013-03-31 05:21:00,51.0,51.0,29.88,SSW,194,23.0,23.0,100,0.15,RA,,0.60,WeatherDisplay:10.37,2013-03-31 09:21:00,
2013-03-31 05:26:00,51.0,51.0,29.88,SW,231,25.3,25.3,100,0.15,RA,,0.61,WeatherDisplay:10.37,2013-03-31 09:26:00,
2013-03-31 05:31:00,51.0,51.0,29.88,SW,220,24.2,24.2,100,0.14,RA,,0.62,WeatherDisplay:10.37,2013-03-31 09:31:00,
2013-03-31 05:36:00,51.0,51.0,29.87,SW,219,24.2,24.2,100,0.14,RA,,0.63,WeatherDisplay:10.37,2013-03-31 09:36:00,
2013-03-31 05:41:00,51.0,51.0,29.88,West,264,24.2,24.2,100,0.14,RA,,0.64,WeatherDisplay:10.37,2013-03-31 09:41:00,
2013-03-31 05:46:00,51.1,51.1,29.87,WSW,249,11.5,19.1,100,0.15,RA,,0.66,WeatherDisplay:10.37,2013-03-31 09:46:00,
2013-03-31 05:51:00,51.1,51.1,29.87,SSW,198,19.6,19.6,100,0.14,RA,,0.67,WeatherDisplay:10.37,2013-03-31 09:51:00,
2013-03-31 05:56:00,51.1,51.1,29.87,WSW,240,16.1,16.1,100,0.15,RA,,0.68,WeatherDisplay:10.37,2013-03-31 09:56:00,
2013-03-31 06:01:00,51.1,51.1,29.87,SW,220,10.4,10.4,100,0.14,RA,,0.69,WeatherDisplay:10.37,2013-03-31 10:01:00,
2013-03-31 06:06:00,51.1,51.1,29.87,WSW,252,13.8,13.8,100,0.14,RA,,0.70,WeatherDisplay:10.37,2013-03-31 10:06:00,
2013-03-31 06:11:00,51.1,51.1,29.87,WSW,244,18.4,18.4,100,0.15,RA,,0.72,WeatherDisplay:10.37,2013-03-31 10:11:00,
2013-03-31 06:16:00,51.1,51.1,29.87,WSW,243,11.5,11.5,100,0.15,RA,,0.73,WeatherDisplay:10.37,2013-03-31 10:16:00,
2013-03-31 06:21:00,51.1,51.1,29.87,SW,217,19.6,19.6,100,0.14,RA,,0.74,WeatherDisplay:10.37,2013-03-31 10:21:00,
2013-03-31 06:26:00,51.1,51.1,29.86,West,262,11.5,11.5,100,0.14,RA,,0.76,WeatherDisplay:10.37,2013-03-31 10:26:00,
2013-03-31 06:31:00,51.2,51.2,29.86,SW,235,23.9,24.0,100,0.14,RA,,0.77,WeatherDisplay:10.37,2013-03-31 10:31:00,
2013-03-31 06:36:00,51.1,51.1,29.87,South,182,23.0,23.0,100,0.15,RA,,0.78,WeatherDisplay:10.37,2013-03-31 10:36:00,
2013-03-31 06:41:00,51.2,51.2,29.87,SW,220,18.4,20.6,100,0.15,RA,,0.79,WeatherDisplay:10.37,2013-03-31 10:41:00,
2013-03-31 06:46:00,51.2,51.2,29.87,SW,223,25.3,25.3,100,0.14,RA,,0.80,WeatherDisplay:10.37,2013-03-31 10:46:00,
2013-03-31 06:51:00,51.2,51.2,29.87,WSW,251,21.9,21.9,100,0.14,RA,,0.81,WeatherDisplay:10.37,2013-03-31 10:51:00,
2013-03-31 06:56:00,51.2,51.2,29.87,West,263,21.9,21.9,100,0.14,RA,,0.82,WeatherDisplay:10.37,2013-03-31 10:56:00,
2013-03-31 07:01:00,51.2,51.2,29.88,WSW,238,18.4,18.4,100,0.14,RA,,0.83,WeatherDisplay:10.37,2013-03-31 11:01:00,
2013-03-31 07:06:00,51.2,51.2,29.88,SSW,196,23.0,23.0,100,0.14,RA,,0.84,WeatherDisplay:10.37,2013-03-31 11:06:00,
2013-03-31 07:11:00,51.2,51.2,29.87,WSW,237,15.0,16.0,100,0.13,RA,,0.85,WeatherDisplay:10.37,2013-03-31 11:11:00,
2013-03-31 07:16:00,51.2,51.2,29.87,SW,225,25.3,25.3,100,0.13,RA,,0.86,WeatherDisplay:10.37,2013-03-31 11:16:00,
2013-03-31 07:21:00,51.2,51.2,29.88,WSW,257,19.6,19.6,100,0.13,RA,,0.87,WeatherDisplay:10.37,2013-03-31 11:21:00,
2013-03-31 07:26:00,51.2,51.2,29.88,SW,223,21.9,21.9,100,0.13,RA,,0.88,WeatherDisplay:10.37,2013-03-31 11:26:00,
2013-03-31 07:31:00,51.2,51.2,29.88,SSW,210,18.4,18.4,100,0.13,RA,,0.89,WeatherDisplay:10.37,2013-03-31 11:31:00,
2013-03-31 07:36:00,51.1,51.1,29.88,SW,223,31.1,31.1,100,0.12,RA,,0.90,WeatherDisplay:10.37,2013-03-31 11:36:00,
2013-03-31 07:42:00,51.1,51.1,29.88,SW,229,19.9,21.6,100,0.12,RA,,0.91,WeatherDisplay:10.37,2013-03-31 11:42:00,
2013-03-31 07:47:00,51.1,51.1,29.88,SSW,196,17.4,18.2,100,0.12,RA,,0.92,WeatherDisplay:10.37,2013-03-31 11:47:00,
2013-03-31 07:52:00,51.1,51.1,29.88,SW,225,19.6,19.6,100,0.11,RA,,0.92,WeatherDisplay:10.37,2013-03-31 11:52:00,
2013-03-31 07:57:00,51.0,51.0,29.88,South,179,16.1,16.1,100,0.11,RA,,0.93,WeatherDisplay:10.37,2013-03-31 11:57:00,
2013-03-31 08:02:00,51.1,51.1,29.88,SW,231,11.5,11.5,100,0.10,RA,,0.94,WeatherDisplay:10.37,2013-03-31 12:02:00,
2013-03-31 08:07:00,51.0,51.0,29.89,SW,231,19.9,19.9,100,0.10,RA,,0.94,WeatherDisplay:10.37,2013-03-31 12:07:00,
2013-03-31 08:12:00,51.1,51.1,29.89,WSW,245,18.4,18.4,100,0.09,RA,,0.95,WeatherDisplay:10.37,2013-03-31 12:12:00,
2013-03-31 08:17:00,51.1,51.1,29.88,WSW,245,11.5,11.5,100,0.10,RA,,0.96,WeatherDisplay:10.37,2013-03-31 12:17:00,
2013-03-31 08:22:00,51.1,51.1,29.88,SW,235,15.0,15.0,100,0.08,RA,,0.96,WeatherDisplay:10.37,2013-03-31 12:22:00,
2013-03-31 08:27:00,51.1,51.1,29.89,SW,218,13.8,13.8,100,0.08,,,0.96,WeatherDisplay:10.37,2013-03-31 12:27:00,
2013-03-31 08:32:00,51.1,51.1,29.89,SW,232,19.6,19.6,100,0.07,CLR,,0.96,WeatherDisplay:10.37,2013-03-31 12:32:00,
2013-03-31 08:37:00,51.1,51.1,29.89,WSW,250,15.0,15.0,100,0.06,CLR,,0.96,WeatherDisplay:10.37,2013-03-31 12:37:00,
2013-03-31 08:42:00,51.1,51.1,29.89,SW,229,17.3,17.3,100,0.05,CLR,,0.96,WeatherDisplay:10.37,2013-03-31 12:42:00,
2013-03-31 08:47:00,51.1,51.1,29.89,SW,230,15.0,15.0,100,0.04,CLR,,0.96,WeatherDisplay:10.37,2013-03-31 12:47:00,
2013-03-31 08:52:00,51.1,51.1,29.89,SW,233,19.6,19.6,100,0.04,CLR,,0.96,WeatherDisplay:10.37,2013-03-31 12:52:00,
2013-03-31 08:57:00,51.1,51.1,29.89,SW,231,21.9,21.9,100,0.03,,,0.96,WeatherDisplay:10.37,2013-03-31 12:57:00,
2013-03-31 09:02:00,51.0,51.0,29.90,SSW,210,10.4,11.4,100,0.02,,,0.96,WeatherDisplay:10.37,2013-03-31 13:02:00,
2013-03-31 09:07:00,51.1,51.1,29.90,WSW,239,19.6,19.6,100,0.02,,,0.96,WeatherDisplay:10.37,2013-03-31 13:07:00,
2013-03-31 09:12:00,51.1,51.1,29.90,WSW,238,25.3,25.3,100,0.01,CLR,,0.96,WeatherDisplay:10.37,2013-03-31 13:12:00,
2013-03-31 09:17:00,51.0,51.0,29.90,SSW,195,18.5,18.5,100,0.00,RA,,0.96,WeatherDisplay:10.37,2013-03-31 13:17:00,
2013-03-31 09:22:00,51.0,51.0,29.90,WSW,245,21.9,21.9,100,0.00,RA,,0.96,WeatherDisplay:10.37,2013-03-31 13:22:00,
2013-03-31 09:27:00,51.0,51.0,29.90,SW,227,19.9,19.9,100,0.00,CLR,,0.96,WeatherDisplay:10.37,2013-03-31 13:27:00,
2013-03-31 09:32:00,51.0,51.0,29.91,South,191,19.6,19.6,100,0.00,CLR,,0.96,WeatherDisplay:10.37,2013-03-31 13:32:00,
2013-03-31 09:37:00,51.0,51.0,29.90,SSE,160,27.6,27.6,100,0.00,,,0.96,WeatherDisplay:10.37,2013-03-31 13:37:00,
2013-03-31 09:42:00,50.9,50.9,29.90,SSW,193,11.5,11.5,100,0.00,CLR,,0.96,WeatherDisplay:10.37,2013-03-31 13:42:00,
2013-03-31 09:47:00,50.9,50.9,29.90,SSE,161,16.1,16.1,100,0.00,CLR,,0.96,WeatherDisplay:10.37,2013-03-31 13:47:00,
2013-03-31 09:52:00,51.0,51.0,29.90,SSW,207,18.6,18.6,100,0.00,CLR,,0.96,WeatherDisplay:10.37,2013-03-31 13:52:00,
2013-03-31 09:57:00,51.1,51.1,29.90,SW,216,15.0,15.0,100,0.00,CLR,,0.96,WeatherDisplay:10.37,2013-03-31 13:57:00,
2013-03-31 10:02:00,51.1,51.1,29.90,SSE,162,16.1,16.1,100,0.00,CLR,,0.96,WeatherDisplay:10.37,2013-03-31 14:02:00,
2013-03-31 10:07:00,51.2,51.2,29.90,SW,215,17.3,17.3,100,0.00,CLR,,0.96,WeatherDisplay:10.37,2013-03-31 14:07:00,
2013-03-31 10:12:00,51.2,51.2,29.91,SSW,200,9.8,9.8,100,0.00,CLR,,0.96,WeatherDisplay:10.37,2013-03-31 14:12:00,
2013-03-31 10:17:00,51.2,51.2,29.91,SSW,210,9.2,9.2,100,0.00,CLR,,0.96,WeatherDisplay:10.37,2013-03-31 14:17:00,
2013-03-31 10:22:00,51.2,51.2,29.91,SW,235,17.3,17.3,100,0.00,CLR,,0.96,WeatherDisplay:10.37,2013-03-31 14:22:00,
2013-03-31 10:27:00,51.2,51.2,29.90,WSW,239,21.9,21.9,100,0.00,CLR,,0.96,WeatherDisplay:10.37,2013-03-31 14:27:00,
2013-03-31 10:32:00,51.2,51.2,29.91,SW,234,13.8,13.8,100,0.00,CLR,,0.96,WeatherDisplay:10.37,2013-03-31 14:32:00,
2013-03-31 10:37:00,51.1,51.1,29.91,SW,217,11.5,11.5,100,0.00,CLR,,0.96,WeatherDisplay:10.37,2013-03-31 14:37:00,
2013-03-31 10:42:00,51.1,51.1,29.90,SW,229,17.3,17.3,100,0.00,CLR,,0.96,WeatherDisplay:10.37,2013-03-31 14:42:00,
2013-03-31 10:47:00,51.1,51.1,29.89,SW,229,19.6,19.6,100,0.00,CLR,,0.96,WeatherDisplay:10.37,2013-03-31 14:47:00,
2013-03-31 10:52:00,51.2,51.2,29.89,West,260,13.8,13.8,100,0.00,CLR,,0.96,WeatherDisplay:10.37,2013-03-31 14:52:00,
2013-03-31 10:57:00,51.2,51.2,29.89,WSW,245,17.3,17.3,100,0.00,CLR,,0.96,WeatherDisplay:10.37,2013-03-31 14:57:00,
2013-03-31 11:02:00,51.2,51.2,29.89,SW,229,8.1,8.5,100,0.00,CLR,,0.96,WeatherDisplay:10.37,2013-03-31 15:02:00,
2013-03-31 11:07:00,51.3,51.3,29.89,SSW,205,19.6,19.6,100,0.00,CLR,,0.96,WeatherDisplay:10.37,2013-03-31 15:07:00,
2013-03-31 11:12:00,51.5,51.5,29.89,SW,221,13.8,13.8,100,0.00,CLR,,0.96,WeatherDisplay:10.37,2013-03-31 15:12:00,
2013-03-31 11:17:00,51.7,51.7,29.88,SW,220,13.8,13.8,100,0.00,CLR,,0.96,WeatherDisplay:10.37,2013-03-31 15:17:00,
2013-03-31 11:22:00,51.9,51.9,29.88,SW,233,13.3,13.3,100,0.00,CLR,,0.96,WeatherDisplay:10.37,2013-03-31 15:22:00,
2013-03-31 11:27:00,52.1,52.1,29.88,WSW,241,17.3,17.3,100,0.00,CLR,,0.96,WeatherDisplay:10.37,2013-03-31 15:27:00,
2013-03-31 11:32:00,52.2,52.2,29.88,WSW,253,10.4,10.4,100,0.00,CLR,,0.96,WeatherDisplay:10.37,2013-03-31 15:32:00,
2013-03-31 11:37:00,52.3,52.3,29.88,West,277,21.9,21.9,100,0.00,CLR,,0.96,WeatherDisplay:10.37,2013-03-31 15:37:00,
2013-03-31 11:42:00,52.3,52.3,29.89,SW,235,24.2,24.2,100,0.00,CLR,,0.96,WeatherDisplay:10.37,2013-03-31 15:42:00,
2013-03-31 11:47:00,52.5,52.5,29.89,SSW,212,28.8,28.8,100,0.00,,,0.96,WeatherDisplay:10.37,2013-03-31 15:47:00,
2013-03-31 11:52:00,52.6,51.5,29.89,SW,219,25.3,25.3,96,0.00,CLR,,0.96,WeatherDisplay:10.37,2013-03-31 15:52:00,
2013-03-31 11:57:00,52.7,51.6,29.89,SW,226,21.9,23.3,96,0.00,CLR,,0.96,WeatherDisplay:10.37,2013-03-31 15:57:00,
2013-03-31 12:02:00,52.8,51.7,29.90,WSW,243,25.3,25.3,96,0.00,CLR,,0.96,WeatherDisplay:10.37,2013-03-31 16:02:00,
2013-03-31 12:07:00,52.9,51.8,29.89,SSW,202,17.3,17.3,96,0.00,CLR,,0.96,WeatherDisplay:10.37,2013-03-31 16:07:00,
2013-03-31 12:12:00,53.0,51.6,29.90,SW,235,18.4,18.4,95,0.00,CLR,,0.96,WeatherDisplay:10.37,2013-03-31 16:12:00,
2013-03-31 12:17:00,53.1,51.7,29.89,SW,219,16.0,19.0,95,0.00,CLR,,0.96,WeatherDisplay:10.37,2013-03-31 16:17:00,
2013-03-31 12:22:00,53.2,52.1,29.89,SSW,203,23.0,23.0,96,0.00,CLR,,0.96,WeatherDisplay:10.37,2013-03-31 16:22:00,
2013-03-31 12:27:00,53.4,52.0,29.89,SSW,194,16.1,16.1,95,0.00,CLR,,0.96,WeatherDisplay:10.37,2013-03-31 16:27:00,
2013-03-31 12:32:00,53.6,52.2,29.89,SW,229,18.4,18.4,95,0.00,CLR,,0.96,WeatherDisplay:10.37,2013-03-31 16:32:00,
2013-03-31 12:37:00,53.8,52.1,29.89,WSW,245,25.3,25.3,94,0.00,CLR,,0.96,WeatherDisplay:10.37,2013-03-31 16:37:00,
2013-03-31 12:42:00,54.0,52.3,29.89,SW,225,25.3,25.3,94,0.00,CLR,,0.96,WeatherDisplay:10.37,2013-03-31 16:42:00,
2013-03-31 12:47:00,54.1,52.4,29.89,SW,227,18.4,19.5,94,0.00,,,0.96,WeatherDisplay:10.37,2013-03-31 16:47:00,
2013-03-31 12:52:00,54.3,52.3,29.89,WSW,239,23.0,23.0,93,0.00,,,0.96,WeatherDisplay:10.37,2013-03-31 16:52:00,
2013-03-31 12:57:00,54.4,52.4,29.89,SW,236,15.0,15.0,93,0.00,,,0.96,WeatherDisplay:10.37,2013-03-31 16:57:00,
2013-03-31 13:02:00,54.6,52.6,29.89,SW,233,23.0,23.0,93,0.00,,,0.96,WeatherDisplay:10.37,2013-03-31 17:02:00,
2013-03-31 13:07:00,54.7,53.0,29.89,SW,235,13.8,13.8,94,0.00,,,0.96,WeatherDisplay:10.37,2013-03-31 17:07:00,
2013-03-31 13:12:00,54.7,52.4,29.88,West,268,16.1,16.1,92,0.00,,,0.96,WeatherDisplay:10.37,2013-03-31 17:12:00,
2013-03-31 13:18:00,54.6,52.6,29.88,SW,229,15.0,15.0,93,0.00,,,0.96,WeatherDisplay:10.37,2013-03-31 17:18:00,
2013-03-31 13:23:00,54.6,52.9,29.88,West,267,15.0,15.0,94,0.00,,,0.96,WeatherDisplay:10.37,2013-03-31 17:23:00,
2013-03-31 13:28:00,54.6,52.6,29.88,WSW,244,19.6,19.6,93,0.00,,,0.96,WeatherDisplay:10.37,2013-03-31 17:28:00,
2013-03-31 13:33:00,54.6,52.6,29.88,SSW,196,11.5,11.5,93,0.00,,,0.96,WeatherDisplay:10.37,2013-03-31 17:33:00,
2013-03-31 13:37:00,54.9,53.5,29.87,West,263,13.8,13.8,95,0.00,,,0.96,WeatherDisplay:10.37,2013-03-31 17:37:00,
2013-03-31 13:42:00,55.4,53.7,29.87,WSW,243,9.3,9.3,94,0.00,,,0.96,WeatherDisplay:10.37,2013-03-31 17:42:00,
2013-03-31 13:47:00,55.9,53.6,29.87,SW,220,18.6,20.8,92,0.00,,,0.96,WeatherDisplay:10.37,2013-03-31 17:47:00,
2013-03-31 13:52:00,56.3,54.0,29.87,SSW,210,15.0,15.0,92,0.00,,,0.96,WeatherDisplay:10.37,2013-03-31 17:52:00,
2013-03-31 13:57:00,56.5,53.6,29.86,SW,221,16.1,16.1,90,0.00,,,0.96,WeatherDisplay:10.37,2013-03-31 17:57:00,
2013-03-31 14:02:00,56.7,53.8,29.86,SSW,195,17.3,17.3,90,0.00,,,0.96,WeatherDisplay:10.37,2013-03-31 18:02:00,
2013-03-31 14:07:00,56.8,53.9,29.86,West,264,13.8,13.8,90,0.00,,,0.96,WeatherDisplay:10.37,2013-03-31 18:07:00,
2013-03-31 14:12:00,57.3,54.7,29.86,WSW,244,16.0,16.0,91,0.00,,,0.96,WeatherDisplay:10.37,2013-03-31 18:12:00,
2013-03-31 14:18:00,57.7,54.8,29.86,SW,225,27.6,27.6,90,0.00,,,0.96,WeatherDisplay:10.37,2013-03-31 18:18:00,
2013-03-31 14:23:00,58.0,54.2,29.86,SW,233,23.0,23.0,87,0.00,,,0.96,WeatherDisplay:10.37,2013-03-31 18:23:00,
2013-03-31 14:28:00,58.1,53.9,29.86,SW,235,17.3,17.3,86,0.00,,,0.96,WeatherDisplay:10.37,2013-03-31 18:28:00,
2013-03-31 14:33:00,58.1,53.9,29.86,WSW,243,16.1,16.1,86,0.00,,,0.96,WeatherDisplay:10.37,2013-03-31 18:33:00,
2013-03-31 14:38:00,58.0,53.8,29.86,WSW,242,16.1,16.1,86,0.00,,,0.96,WeatherDisplay:10.37,2013-03-31 18:38:00,
2013-03-31 14:43:00,57.8,53.6,29.86,West,276,18.4,18.4,86,0.00,,,0.96,WeatherDisplay:10.37,2013-03-31 18:43:00,
2013-03-31 14:48:00,57.7,53.5,29.86,SW,227,12.0,13.7,86,0.00,,,0.96,WeatherDisplay:10.37,2013-03-31 18:48:00,
2013-03-31 14:53:00,57.5,53.3,29.85,SW,225,11.5,11.5,86,0.00,,,0.96,WeatherDisplay:10.37,2013-03-31 18:53:00,
2013-03-31 14:58:00,57.2,53.4,29.85,WSW,248,18.4,18.4,87,0.00,,,0.96,WeatherDisplay:10.37,2013-03-31 18:58:00,
2013-03-31 15:03:00,56.8,53.3,29.85,SW,220,16.1,16.1,88,0.00,,,0.96,WeatherDisplay:10.37,2013-03-31 19:03:00,
2013-03-31 15:08:00,56.5,53.3,29.85,SW,227,15.0,15.0,89,0.00,,,0.96,WeatherDisplay:10.37,2013-03-31 19:08:00,
2013-03-31 15:13:00,56.0,53.1,29.85,SW,214,8.1,8.1,90,0.00,,,0.97,WeatherDisplay:10.37,2013-03-31 19:13:00,
2013-03-31 15:18:00,55.6,53.0,29.85,SSW,195,6.9,6.9,91,0.01,RA,,0.97,WeatherDisplay:10.37,2013-03-31 19:18:00,
2013-03-31 15:23:00,55.3,53.0,29.84,SSW,201,8.1,9.3,92,0.01,RA,,0.97,WeatherDisplay:10.37,2013-03-31 19:23:00,
2013-03-31 15:28:00,55.1,53.1,29.85,WSW,249,9.2,9.2,93,0.02,RA,,0.98,WeatherDisplay:10.37,2013-03-31 19:28:00,
2013-03-31 15:33:00,55.0,53.3,29.86,WSW,245,16.1,16.1,94,0.02,RA,,0.98,WeatherDisplay:10.37,2013-03-31 19:33:00,
2013-03-31 15:38:00,54.8,53.1,29.85,WSW,241,19.6,20.1,94,0.02,CLR,,0.98,WeatherDisplay:10.37,2013-03-31 19:38:00,
2013-03-31 15:43:00,54.7,53.0,29.85,WSW,248,15.0,15.0,94,0.03,RA,,0.99,WeatherDisplay:10.37,2013-03-31 19:43:00,
2013-03-31 15:48:00,54.5,53.1,29.85,SW,231,19.9,19.9,95,0.03,RA,,0.99,WeatherDisplay:10.37,2013-03-31 19:48:00,
2013-03-31 15:53:00,54.4,53.0,29.85,SW,233,16.1,16.1,95,0.04,RA,,1.00,WeatherDisplay:10.37,2013-03-31 19:53:00,
2013-03-31 15:58:00,54.4,53.0,29.85,SW,225,9.2,9.2,95,0.04,RA,,1.00,WeatherDisplay:10.37,2013-03-31 19:58:00,
2013-03-31 16:03:00,54.3,52.9,29.85,SW,231,13.8,13.8,95,0.04,,,1.00,WeatherDisplay:10.37,2013-03-31 20:03:00,
2013-03-31 16:08:00,54.4,53.3,29.84,SW,236,10.6,10.6,96,0.04,CLR,,1.00,WeatherDisplay:10.37,2013-03-31 20:08:00,
2013-03-31 16:13:00,54.5,53.4,29.85,WSW,247,13.8,13.8,96,0.04,RA,,1.01,WeatherDisplay:10.37,2013-03-31 20:13:00,
2013-03-31 16:18:00,54.4,53.0,29.84,WSW,241,9.2,9.2,95,0.04,RA,,1.01,WeatherDisplay:10.37,2013-03-31 20:18:00,
2013-03-31 16:23:00,54.4,53.0,29.84,SW,221,5.8,5.8,95,0.04,,,1.01,WeatherDisplay:10.37,2013-03-31 20:23:00,
2013-03-31 16:28:00,54.3,52.9,29.84,SW,230,9.3,9.3,95,0.03,CLR,,1.01,WeatherDisplay:10.37,2013-03-31 20:28:00,
2013-03-31 16:33:00,54.1,52.7,29.84,WSW,244,10.4,10.4,95,0.04,RA,,1.02,WeatherDisplay:10.37,2013-03-31 20:33:00,
2013-03-31 16:38:00,54.0,52.6,29.84,SW,235,10.6,10.6,95,0.04,RA,,1.02,WeatherDisplay:10.37,2013-03-31 20:38:00,
2013-03-31 16:43:00,53.9,52.5,29.84,SW,221,10.4,10.4,95,0.03,CLR,,1.02,WeatherDisplay:10.37,2013-03-31 20:43:00,
2013-03-31 16:48:00,53.9,52.8,29.84,SW,218,10.4,10.4,96,0.03,CLR,,1.02,WeatherDisplay:10.37,2013-03-31 20:48:00,
2013-03-31 16:53:00,53.9,52.8,29.84,SW,233,5.8,5.8,96,0.02,CLR,,1.02,WeatherDisplay:10.37,2013-03-31 20:53:00,
2013-03-31 16:58:00,53.9,52.8,29.84,SW,228,6.9,6.9,96,0.03,RA,,1.03,WeatherDisplay:10.37,2013-03-31 20:58:00,
2013-03-31 17:03:00,53.8,52.7,29.84,SW,225,13.3,13.3,96,0.03,RA,,1.03,WeatherDisplay:10.37,2013-03-31 21:03:00,
2013-03-31 17:08:00,53.8,52.7,29.84,SW,229,17.3,17.3,96,0.03,CLR,,1.03,WeatherDisplay:10.37,2013-03-31 21:08:00,
2013-03-31 17:13:00,53.8,52.7,29.84,WSW,254,16.1,16.1,96,0.02,CLR,,1.03,WeatherDisplay:10.37,2013-03-31 21:13:00,
2013-03-31 17:18:00,53.8,52.7,29.84,SW,231,17.3,17.3,96,0.03,RA,,1.04,WeatherDisplay:10.37,2013-03-31 21:18:00,
2013-03-31 17:23:00,53.8,52.7,29.84,WSW,254,17.3,17.3,96,0.03,RA,,1.04,WeatherDisplay:10.37,2013-03-31 21:23:00,
2013-03-31 17:28:00,53.8,52.7,29.84,SW,215,27.6,27.6,96,0.03,,,1.04,WeatherDisplay:10.37,2013-03-31 21:28:00,
2013-03-31 17:33:00,53.8,52.7,29.84,SW,228,21.9,21.9,96,0.02,CLR,,1.04,WeatherDisplay:10.37,2013-03-31 21:33:00,
2013-03-31 17:38:00,53.7,52.6,29.84,WSW,240,23.0,23.0,96,0.02,CLR,,1.04,WeatherDisplay:10.37,2013-03-31 21:38:00,
2013-03-31 17:43:00,53.7,52.6,29.84,SW,227,16.1,16.1,96,0.02,CLR,,1.04,WeatherDisplay:10.37,2013-03-31 21:43:00,
2013-03-31 17:48:00,53.7,52.6,29.84,SW,229,16.1,16.1,96,0.02,CLR,,1.04,WeatherDisplay:10.37,2013-03-31 21:48:00,
2013-03-31 17:53:00,53.6,52.5,29.83,SW,216,21.9,21.9,96,0.02,CLR,,1.04,WeatherDisplay:10.37,2013-03-31 21:53:00,
2013-03-31 17:58:00,53.6,52.5,29.84,South,188,13.8,13.8,96,0.01,CLR,,1.04,WeatherDisplay:10.37,2013-03-31 21:58:00,
2013-03-31 18:03:00,53.5,52.4,29.83,SW,217,16.1,16.1,96,0.01,CLR,,1.05,WeatherDisplay:10.37,2013-03-31 22:03:00,
2013-03-31 18:08:00,53.5,52.4,29.83,SW,230,11.5,11.8,96,0.02,RA,,1.05,WeatherDisplay:10.37,2013-03-31 22:08:00,
2013-03-31 18:13:00,53.5,53.5,29.83,SW,218,10.4,11.7,100,0.02,RA,,1.05,WeatherDisplay:10.37,2013-03-31 22:13:00,
2013-03-31 18:18:00,53.5,53.5,29.83,SSW,211,10.4,10.4,100,0.01,CLR,,1.05,WeatherDisplay:10.37,2013-03-31 22:18:00,
2013-03-31 18:23:00,53.4,53.4,29.84,South,179,5.8,5.8,100,0.01,CLR,,1.05,WeatherDisplay:10.37,2013-03-31 22:23:00,
2013-03-31 18:28:00,53.4,53.4,29.83,WSW,243,8.1,8.1,100,0.01,CLR,,1.05,WeatherDisplay:10.37,2013-03-31 22:28:00,
2013-03-31 18:33:00,53.4,53.4,29.84,SW,234,11.5,11.5,100,0.01,CLR,,1.05,WeatherDisplay:10.37,2013-03-31 22:33:00,
2013-03-31 18:38:00,53.3,53.3,29.84,WSW,237,18.4,19.3,100,0.02,RA,,1.06,WeatherDisplay:10.37,2013-03-31 22:38:00,
2013-03-31 18:43:00,53.4,53.4,29.84,SW,221,17.3,17.3,100,0.02,RA,,1.06,WeatherDisplay:10.37,2013-03-31 22:43:00,
2013-03-31 18:48:00,53.3,53.3,29.84,WSW,243,17.3,17.3,100,0.02,CLR,,1.06,WeatherDisplay:10.37,2013-03-31 22:48:00,
2013-03-31 18:53:00,53.3,53.3,29.84,WSW,239,17.3,17.3,100,0.02,CLR,,1.06,WeatherDisplay:10.37,2013-03-31 22:53:00,
2013-03-31 18:58:00,53.3,53.3,29.84,SW,226,13.8,13.8,100,0.02,CLR,,1.06,WeatherDisplay:10.37,2013-03-31 22:58:00,
2013-03-31 19:03:00,53.3,53.3,29.84,SW,224,14.6,15.4,100,0.02,CLR,,1.06,WeatherDisplay:10.37,2013-03-31 23:03:00,
2013-03-31 19:08:00,53.3,53.3,29.84,SW,234,18.4,18.4,100,0.01,CLR,,1.06,WeatherDisplay:10.37,2013-03-31 23:08:00,
2013-03-31 19:13:00,53.3,53.3,29.84,SW,219,9.2,9.2,100,0.01,CLR,,1.06,WeatherDisplay:10.37,2013-03-31 23:13:00,
2013-03-31 19:18:00,53.3,53.3,29.84,SW,225,10.4,10.4,100,0.01,CLR,,1.06,WeatherDisplay:10.37,2013-03-31 23:18:00,
2013-03-31 19:23:00,53.3,53.3,29.84,SW,220,18.4,18.4,100,0.01,CLR,,1.06,WeatherDisplay:10.37,2013-03-31 23:23:00,
2013-03-31 19:28:00,53.3,53.3,29.84,WSW,240,16.1,16.1,100,0.01,CLR,,1.06,WeatherDisplay:10.37,2013-03-31 23:28:00,
2013-03-31 19:33:00,53.3,53.3,29.83,SSW,207,16.1,16.1,100,0.01,CLR,,1.06,WeatherDisplay:10.37,2013-03-31 23:33:00,
2013-03-31 19:38:00,53.3,53.3,29.84,WSW,251,11.5,11.5,100,0.00,CLR,,1.06,WeatherDisplay:10.37,2013-03-31 23:38:00,
2013-03-31 19:43:00,53.2,53.2,29.83,WNW,289,9.2,9.2,100,0.00,CLR,,1.06,WeatherDisplay:10.37,2013-03-31 23:43:00,
2013-03-31 19:48:00,53.2,53.2,29.83,SW,218,16.1,16.1,100,0.00,CLR,,1.06,WeatherDisplay:10.37,2013-03-31 23:48:00,
2013-03-31 19:53:00,53.2,53.2,29.83,SSW,201,13.8,13.8,100,0.00,CLR,,1.06,WeatherDisplay:10.37,2013-03-31 23:53:00,
2013-03-31 19:58:00,53.3,53.3,29.83,SSW,211,13.8,13.8,100,0.00,CLR,,1.06,WeatherDisplay:10.37,2013-03-31 23:58:00,
2013-03-31 20:03:00,53.2,53.2,29.83,SW,233,17.3,17.3,100,0.00,CLR,,1.06,WeatherDisplay:10.37,2013-04-01 00:03:00,
2013-03-31 20:08:00,53.2,53.2,29.83,SW,231,11.5,12.7,100,0.00,CLR,,1.06,WeatherDisplay:10.37,2013-04-01 00:08:00,
2013-03-31 20:13:00,53.2,53.2,29.83,SW,229,9.2,9.2,100,0.00,CLR,,1.06,WeatherDisplay:10.37,2013-04-01 00:13:00,
2013-03-31 20:18:00,53.2,53.2,29.83,WSW,243,15.0,15.0,100,0.00,CLR,,1.06,WeatherDisplay:10.37,2013-04-01 00:18:00,
2013-03-31 20:23:00,53.2,53.2,29.83,SW,226,24.2,24.2,100,0.00,CLR,,1.06,WeatherDisplay:10.37,2013-04-01 00:23:00,
2013-03-31 20:28:00,53.3,53.3,29.83,SW,231,17.3,17.3,100,0.00,CLR,,1.06,WeatherDisplay:10.37,2013-04-01 00:28:00,
2013-03-31 20:33:00,53.3,53.3,29.83,WSW,243,17.3,17.3,100,0.00,CLR,,1.07,WeatherDisplay:10.37,2013-04-01 00:33:00,
2013-03-31 20:38:00,53.3,53.3,29.83,SW,232,9.2,9.7,100,0.01,RA,,1.07,WeatherDisplay:10.37,2013-04-01 00:38:00,
2013-03-31 20:43:00,53.3,53.3,29.83,West,270,5.4,5.4,100,0.01,RA,,1.07,WeatherDisplay:10.37,2013-04-01 00:43:00,
2013-03-31 20:48:00,53.3,53.3,29.83,WSW,258,10.4,10.4,100,0.01,CLR,,1.07,WeatherDisplay:10.37,2013-04-01 00:48:00,
2013-03-31 20:53:00,53.3,53.3,29.83,WSW,257,9.2,9.2,100,0.01,CLR,,1.07,WeatherDisplay:10.37,2013-04-01 00:53:00,
2013-03-31 20:58:00,53.3,53.3,29.83,WSW,250,17.3,17.3,100,0.01,CLR,,1.07,WeatherDisplay:10.37,2013-04-01 00:58:00,
2013-03-31 21:03:00,53.3,53.3,29.83,WSW,245,10.4,10.4,100,0.01,CLR,,1.07,WeatherDisplay:10.37,2013-04-01 01:03:00,
2013-03-31 21:08:00,53.3,53.3,29.83,WSW,244,11.5,12.5,100,0.01,CLR,,1.07,WeatherDisplay:10.37,2013-04-01 01:08:00,
2013-03-31 21:13:00,53.3,53.3,29.83,West,260,13.8,13.8,100,0.01,CLR,,1.07,WeatherDisplay:10.37,2013-04-01 01:13:00,
2013-03-31 21:18:00,53.3,53.3,29.83,SSW,212,18.4,18.4,100,0.01,CLR,,1.08,WeatherDisplay:10.37,2013-04-01 01:18:00,
2013-03-31 21:24:00,53.3,53.3,29.83,SW,223,11.5,16.9,100,0.02,RA,,1.08,WeatherDisplay:10.37,2013-04-01 01:24:00,
2013-03-31 21:29:00,53.3,53.3,29.84,WSW,241,17.3,17.3,100,0.02,RA,,1.08,WeatherDisplay:10.37,2013-04-01 01:29:00,
2013-03-31 21:34:00,53.3,53.3,29.84,SW,219,16.1,21.3,100,0.02,CLR,,1.08,WeatherDisplay:10.37,2013-04-01 01:34:00,
2013-03-31 21:39:00,53.3,53.3,29.84,SW,220,16.1,16.1,100,0.01,CLR,,1.08,WeatherDisplay:10.37,2013-04-01 01:39:00,
2013-03-31 21:44:00,53.3,53.3,29.84,WSW,239,15.0,15.0,100,0.01,CLR,,1.08,WeatherDisplay:10.37,2013-04-01 01:44:00,
2013-03-31 21:49:00,53.3,53.3,29.85,West,278,13.8,13.8,100,0.01,CLR,,1.08,WeatherDisplay:10.37,2013-04-01 01:49:00,
2013-03-31 21:54:00,53.3,53.3,29.85,West,259,10.4,10.4,100,0.01,CLR,,1.08,WeatherDisplay:10.37,2013-04-01 01:54:00,
2013-03-31 21:59:00,53.3,53.3,29.84,SW,227,19.9,19.9,100,0.01,CLR,,1.08,WeatherDisplay:10.37,2013-04-01 01:59:00,
2013-03-31 22:04:00,53.3,53.3,29.85,WSW,254,18.4,18.4,100,0.01,CLR,,1.08,WeatherDisplay:10.37,2013-04-01 02:04:00,
2013-03-31 22:09:00,53.2,53.2,29.85,West,272,21.9,21.9,100,0.01,CLR,,1.08,WeatherDisplay:10.37,2013-04-01 02:09:00,
2013-03-31 22:14:00,53.2,53.2,29.86,WSW,241,21.9,21.9,100,0.01,CLR,,1.08,WeatherDisplay:10.37,2013-04-01 02:14:00,
2013-03-31 22:19:00,53.2,53.2,29.85,WSW,248,10.4,12.5,100,0.01,CLR,,1.08,WeatherDisplay:10.37,2013-04-01 02:19:00,
2013-03-31 22:24:00,53.1,53.1,29.85,SW,217,21.9,22.9,100,0.00,CLR,,1.08,WeatherDisplay:10.37,2013-04-01 02:24:00,
2013-03-31 22:29:00,53.0,53.0,29.85,SW,219,19.6,21.3,100,0.00,CLR,,1.08,WeatherDisplay:10.37,2013-04-01 02:29:00,
2013-03-31 22:34:00,52.9,52.9,29.85,SW,226,21.9,21.9,100,0.00,CLR,,1.08,WeatherDisplay:10.37,2013-04-01 02:34:00,
2013-03-31 22:39:00,52.9,52.9,29.85,SSW,201,25.3,25.3,100,0.00,CLR,,1.08,WeatherDisplay:10.37,2013-04-01 02:39:00,
2013-03-31 22:44:00,52.9,52.9,29.85,SW,236,18.4,21.7,100,0.00,CLR,,1.08,WeatherDisplay:10.37,2013-04-01 02:44:00,
2013-03-31 22:49:00,52.8,52.8,29.85,WSW,237,17.3,17.3,100,0.00,CLR,,1.08,WeatherDisplay:10.37,2013-04-01 02:49:00,
2013-03-31 22:54:00,52.8,52.8,29.84,SW,230,16.1,16.1,100,0.00,CLR,,1.08,WeatherDisplay:10.37,2013-04-01 02:54:00,
2013-03-31 22:59:00,52.8,52.8,29.84,SW,219,16.1,16.1,100,0.00,CLR,,1.08,WeatherDisplay:10.37,2013-04-01 02:59:00,
2013-03-31 23:04:00,52.8,52.8,29.84,SW,230,15.0,15.0,100,0.00,CLR,,1.08,WeatherDisplay:10.37,2013-04-01 03:04:00,
2013-03-31 23:09:00,52.8,52.8,29.84,SW,225,12.0,12.0,100,0.00,CLR,,1.08,WeatherDisplay:10.37,2013-04-01 03:09:00,
2013-03-31 23:14:00,52.8,52.8,29.85,SW,230,17.3,17.3,100,0.00,CLR,,1.08,WeatherDisplay:10.37,2013-04-01 03:14:00,
2013-03-31 23:19:00,52.8,52.8,29.84,SSW,202,16.1,16.1,100,0.00,CLR,,1.08,WeatherDisplay:10.37,2013-04-01 03:19:00,
2013-03-31 23:24:00,52.8,52.8,29.84,SW,214,9.2,10.0,100,0.00,CLR,,1.08,WeatherDisplay:10.37,2013-04-01 03:24:00,
2013-03-31 23:29:00,52.9,52.9,29.84,SW,231,5.8,5.8,100,0.00,CLR,,1.08,WeatherDisplay:10.37,2013-04-01 03:29:00,
2013-03-31 23:34:00,52.9,52.9,29.84,SW,221,8.1,8.1,100,0.00,CLR,,1.08,WeatherDisplay:10.37,2013-04-01 03:34:00,
2013-03-31 23:39:00,52.9,52.9,29.85,SW,233,13.8,13.8,100,0.00,CLR,,1.08,WeatherDisplay:10.37,2013-04-01 03:39:00,
2013-03-31 23:44:00,52.9,52.9,29.85,West,267,11.5,11.5,100,0.00,CLR,,1.08,WeatherDisplay:10.37,2013-04-01 03:44:00,
2013-03-31 23:49:00,52.9,52.9,29.85,WSW,254,4.6,4.6,100,0.00,CLR,,1.08,WeatherDisplay:10.37,2013-04-01 03:49:00,
2013-03-31 23:54:00,52.9,52.9,29.85,SW,222,2.3,2.3,100,0.01,RA,,1.09,WeatherDisplay:10.37,2013-04-01 03:54:00,
2013-03-31 23:59:00,52.8,52.8,29.85,SW,222,0.0,0.0,100,0.01,RA,,1.09,WeatherDisplay:10.37,2013-04-01 03:59:00,